Time;durP1;ratioP1;P1;durP2;ratioP2;P2;SDS_P1;SDS_P2;PMS_P1;PMS_P2;Temp;Humidity;BMP_temperature;BMP_pressure;BME280_temperature;BME280_humidity;BME280_pressure;Samples;Min_cycle;Max_cycle;Signal;HPM_P1;HPM_P2
2022/12/04 00:02:21;;;;;;;;;;;1.30;99.90;;;;;;5104414;28;19942;-69
2022/12/04 00:04:48;;;;;;;;;;;1.30;99.90;;;;;;5103647;28;19927;-69
2022/12/04 00:07:16;;;;;;;;;;;1.30;99.90;;;;;;5103172;28;19983;-69
2022/12/04 00:09:43;;;;;;;;;;;1.40;99.90;;;;;;5104380;28;19959;-69
2022/12/04 00:12:09;;;;;;;;;;;1.40;99.90;;;;;;5104674;28;19958;-68
2022/12/04 00:14:36;;;;;;;;;;;1.40;99.90;;;;;;5104250;28;19959;-69
2022/12/04 00:17:03;;;;;;;;;;;1.40;99.90;;;;;;5103618;28;19952;-69
2022/12/04 00:19:29;;;;;;;;;;;1.40;99.90;;;;;;5104296;28;19989;-71
2022/12/04 00:21:56;;;;;;;;;;;1.30;99.90;;;;;;5104172;28;19970;-69
2022/12/04 00:24:24;;;;;;;;;;;1.30;99.90;;;;;;5104272;28;19948;-69
2022/12/04 00:26:51;;;;;;;;;;;1.30;99.90;;;;;;5103707;28;19947;-69
2022/12/04 00:29:18;;;;;;;;;;;1.40;99.90;;;;;;5104014;28;19920;-69
2022/12/04 00:31:45;;;;;;;;;;;1.40;99.90;;;;;;5103578;28;19951;-69
2022/12/04 00:34:11;;;;;;;;;;;1.40;99.90;;;;;;5101792;28;20251;-69
2022/12/04 00:36:38;;;;;;;;;;;1.40;99.90;;;;;;5103208;28;20009;-69
2022/12/04 00:39:05;;;;;;;;;;;1.40;99.90;;;;;;5083940;28;19960;-69
2022/12/04 00:41:34;;;;;;;;;;;1.40;99.90;;;;;;5098678;28;19962;-69
2022/12/04 00:44:01;;;;;;;;;;;1.50;99.90;;;;;;5103608;28;19987;-69
2022/12/04 00:46:28;;;;;;;;;;;1.40;99.90;;;;;;5087287;28;19992;-69
2022/12/04 00:48:55;;;;;;;;;;;1.40;99.90;;;;;;5083620;28;20000;-69
2022/12/04 00:51:22;;;;;;;;;;;1.50;99.90;;;;;;5083435;28;20287;-69
2022/12/04 00:53:49;;;;;;;;;;;1.50;99.90;;;;;;5083270;28;19952;-69
2022/12/04 00:56:17;;;;;;;;;;;1.50;99.90;;;;;;5089425;28;19957;-69
2022/12/04 00:58:45;;;;;;;;;;;1.40;99.90;;;;;;5101616;28;19956;-69
2022/12/04 01:01:12;;;;;;;;;;;1.40;99.90;;;;;;5103446;28;19984;-69
2022/12/04 01:03:39;;;;;;;;;;;1.40;99.90;;;;;;5103321;28;20231;-71
2022/12/04 01:06:06;;;;;;;;;;;1.40;99.90;;;;;;5082515;28;19988;-69
2022/12/04 01:08:33;;;;;;;;;;;1.40;99.90;;;;;;5083394;28;19972;-72
2022/12/04 01:11:00;;;;;;;;;;;1.40;99.90;;;;;;5083349;28;19927;-70
2022/12/04 01:13:26;;;;;;;;;;;1.40;99.90;;;;;;5090209;28;19952;-69
2022/12/04 01:15:54;;;;;;;;;;;1.40;99.90;;;;;;5104959;28;19942;-69
2022/12/04 01:18:21;;;;;;;;;;;1.50;99.90;;;;;;5087245;28;20030;-69
2022/12/04 01:20:49;;;;;;;;;;;1.40;99.90;;;;;;5087476;28;19920;-69
2022/12/04 01:23:16;;;;;;;;;;;1.40;99.90;;;;;;5087430;28;19920;-69
2022/12/04 01:25:49;;;;;;;;;;;1.50;99.90;;;;;;5087130;28;20550;-70
2022/12/04 01:28:16;;;;;;;;;;;1.50;99.90;;;;;;5086881;28;19988;-69
2022/12/04 01:30:42;;;;;;;;;;;1.50;99.90;;;;;;5087262;28;19987;-69
2022/12/04 01:33:10;;;;;;;;;;;1.50;99.90;;;;;;5086916;28;19960;-69
2022/12/04 01:35:37;;;;;;;;;;;1.50;99.90;;;;;;5087024;28;20195;-70
2022/12/04 01:38:04;;;;;;;;;;;1.40;99.90;;;;;;5089192;28;19952;-70
2022/12/04 01:40:30;;;;;;;;;;;1.50;99.90;;;;;;5107560;28;19962;-69
2022/12/04 01:43:03;;;;;;;;;;;1.40;99.90;;;;;;5104881;28;19956;-69
2022/12/04 01:45:37;;;;;;;;;;;1.40;99.90;;;;;;5107067;28;19955;-69
2022/12/04 01:48:06;;;;;;;;;;;1.50;99.90;;;;;;5106701;28;19983;-70
2022/12/04 01:50:34;;;;;;;;;;;1.40;99.90;;;;;;5107217;28;19955;-68
2022/12/04 01:53:01;;;;;;;;;;;1.40;99.90;;;;;;5104303;28;20320;-70
2022/12/04 01:55:27;;;;;;;;;;;1.40;99.90;;;;;;5105257;28;19955;-71
2022/12/04 01:57:54;;;;;;;;;;;1.50;99.90;;;;;;5105963;28;19920;-70
2022/12/04 02:00:21;;;;;;;;;;;1.40;99.90;;;;;;5106646;28;20204;-70
2022/12/04 02:02:48;;;;;;;;;;;1.40;99.90;;;;;;5106801;28;20000;-70
2022/12/04 02:05:15;;;;;;;;;;;1.50;99.90;;;;;;5100147;28;19951;-70
2022/12/04 02:07:45;;;;;;;;;;;1.50;99.90;;;;;;5106002;28;19955;-71
2022/12/04 02:10:12;;;;;;;;;;;1.50;99.90;;;;;;5106392;28;20231;-70
2022/12/04 02:12:43;;;;;;;;;;;1.50;99.90;;;;;;5106599;28;19991;-70
2022/12/04 02:15:14;;;;;;;;;;;1.50;99.90;;;;;;5106393;28;19924;-70
2022/12/04 02:17:45;;;;;;;;;;;1.50;99.90;;;;;;5105846;28;19967;-70
2022/12/04 02:20:21;;;;;;;;;;;1.50;99.90;;;;;;5106467;28;20414;-71
2022/12/04 02:22:57;;;;;;;;;;;1.50;99.90;;;;;;5106497;28;19967;-70
2022/12/04 02:25:28;;;;;;;;;;;1.60;99.90;;;;;;5105904;28;19962;-70
2022/12/04 02:28:04;;;;;;;;;;;1.60;99.90;;;;;;5105488;28;19988;-70
2022/12/04 02:30:32;;;;;;;;;;;1.60;99.90;;;;;;5106420;28;19991;-69
2022/12/04 02:33:01;;;;;;;;;;;1.60;99.90;;;;;;5106327;28;19955;-69
2022/12/04 02:35:30;;;;;;;;;;;1.60;99.90;;;;;;5105968;28;19927;-69
2022/12/04 02:38:03;;;;;;;;;;;1.60;99.90;;;;;;5105289;28;19966;-69
2022/12/04 02:40:31;;;;;;;;;;;1.60;99.90;;;;;;5105829;28;19927;-69
2022/12/04 02:42:59;;;;;;;;;;;1.60;99.90;;;;;;5105977;28;19983;-69
2022/12/04 02:45:30;;;;;;;;;;;1.60;99.90;;;;;;5105852;28;20251;-68
2022/12/04 02:47:58;;;;;;;;;;;1.60;99.90;;;;;;5105413;28;19952;-69
2022/12/04 02:50:25;;;;;;;;;;;1.70;99.90;;;;;;5105580;28;19959;-69
2022/12/04 02:52:54;;;;;;;;;;;1.60;99.90;;;;;;5105450;28;19960;-70
2022/12/04 02:55:22;;;;;;;;;;;1.60;99.90;;;;;;5105358;28;20176;-69
2022/12/04 02:57:51;;;;;;;;;;;1.70;99.90;;;;;;5094871;28;19948;-69
2022/12/04 03:00:18;;;;;;;;;;;1.60;99.90;;;;;;5085577;28;19921;-69
2022/12/04 03:02:48;;;;;;;;;;;1.60;99.90;;;;;;5091769;28;19974;-69
2022/12/04 03:05:16;;;;;;;;;;;1.60;99.90;;;;;;5105527;28;19951;-69
2022/12/04 03:07:45;;;;;;;;;;;1.60;99.90;;;;;;5104912;28;19951;-69
2022/12/04 03:10:14;;;;;;;;;;;1.70;99.90;;;;;;5105424;28;19963;-69
2022/12/04 03:12:43;;;;;;;;;;;1.70;99.90;;;;;;5105355;28;19967;-69
2022/12/04 03:15:12;;;;;;;;;;;1.70;99.90;;;;;;5105350;28;19924;-70
2022/12/04 03:17:47;;;;;;;;;;;1.70;99.90;;;;;;5090161;28;19983;-69
2022/12/04 03:20:16;;;;;;;;;;;1.70;99.90;;;;;;5085070;28;19955;-70
2022/12/04 03:22:44;;;;;;;;;;;1.70;99.90;;;;;;5084897;28;19955;-69
2022/12/04 03:25:12;;;;;;;;;;;1.70;99.90;;;;;;5084452;28;19952;-69
2022/12/04 03:27:43;;;;;;;;;;;1.70;99.90;;;;;;5092761;28;19943;-69
2022/12/04 03:30:11;;;;;;;;;;;1.80;99.90;;;;;;5091898;28;20207;-69
2022/12/04 03:32:40;;;;;;;;;;;1.80;99.90;;;;;;5101406;28;19927;-69
2022/12/04 03:35:09;;;;;;;;;;;1.80;99.90;;;;;;5105048;28;20065;-69
2022/12/04 03:37:39;;;;;;;;;;;1.80;99.90;;;;;;5103697;28;20156;-69
2022/12/04 03:40:10;;;;;;;;;;;1.80;99.90;;;;;;5104912;28;19962;-69
2022/12/04 03:42:39;;;;;;;;;;;1.80;99.90;;;;;;5104802;28;20166;-69
2022/12/04 03:45:09;;;;;;;;;;;1.80;99.90;;;;;;5088664;28;19920;-69
2022/12/04 03:47:38;;;;;;;;;;;1.80;99.90;;;;;;5095745;28;19959;-69
2022/12/04 03:50:08;;;;;;;;;;;1.80;99.90;;;;;;5084377;28;19959;-69
2022/12/04 03:52:36;;;;;;;;;;;1.70;99.90;;;;;;5084780;28;19927;-69
2022/12/04 03:55:11;;;;;;;;;;;1.70;99.90;;;;;;5084362;28;20400;-70
2022/12/04 03:57:39;;;;;;;;;;;1.70;99.90;;;;;;5092360;28;19956;-69
2022/12/04 04:00:08;;;;;;;;;;;1.70;99.90;;;;;;5091986;28;19956;-69
2022/12/04 04:02:37;;;;;;;;;;;1.70;99.90;;;;;;5100706;28;19924;-69
2022/12/04 04:05:06;;;;;;;;;;;1.70;99.90;;;;;;5084146;28;19978;-69
2022/12/04 04:07:33;;;;;;;;;;;1.70;99.90;;;;;;5083409;28;19960;-69
2022/12/04 04:10:03;;;;;;;;;;;1.70;99.90;;;;;;5095756;28;19962;-69
2022/12/04 04:12:33;;;;;;;;;;;1.70;99.90;;;;;;5103887;28;20259;-69
2022/12/04 04:26:04;;;;;;;;;;;1.60;99.90;;;;;;5082769;28;19939;-71
2022/12/04 04:28:33;;;;;;;;;;;1.60;99.90;;;;;;5099206;28;19951;-69
2022/12/04 04:31:04;;;;;;;;;;;1.70;99.90;;;;;;5086445;28;19963;-69
2022/12/04 04:33:32;;;;;;;;;;;1.70;99.90;;;;;;5103715;28;20246;-69
2022/12/04 04:36:03;;;;;;;;;;;1.70;99.90;;;;;;5091613;28;19992;-69
2022/12/04 04:38:31;;;;;;;;;;;1.70;99.90;;;;;;5083672;28;19956;-69
2022/12/04 04:40:59;;;;;;;;;;;1.80;99.90;;;;;;5086111;28;20168;-69
2022/12/04 04:43:30;;;;;;;;;;;1.80;99.90;;;;;;5102155;28;19983;-69
2022/12/04 04:45:59;;;;;;;;;;;1.80;99.90;;;;;;5103219;28;19955;-69
2022/12/04 04:48:28;;;;;;;;;;;1.80;99.90;;;;;;5088339;28;19982;-69
2022/12/04 04:50:54;;;;;;;;;;;1.70;99.90;;;;;;5100014;28;19963;-69
2022/12/04 04:53:23;;;;;;;;;;;1.80;99.90;;;;;;5083659;28;20012;-69
2022/12/04 04:55:52;;;;;;;;;;;1.80;99.90;;;;;;5081622;28;20101;-69
2022/12/04 04:58:20;;;;;;;;;;;1.80;99.90;;;;;;5083140;28;19951;-69
2022/12/04 05:00:50;;;;;;;;;;;1.90;99.90;;;;;;5101611;28;20008;-69
2022/12/04 05:03:18;;;;;;;;;;;1.80;99.90;;;;;;5102023;28;19997;-69
2022/12/04 05:05:45;;;;;;;;;;;1.90;99.90;;;;;;5103034;28;19951;-69
2022/12/04 05:08:12;;;;;;;;;;;1.90;99.90;;;;;;5089818;28;19959;-69
2022/12/04 05:10:38;;;;;;;;;;;1.90;99.90;;;;;;5100259;28;19952;-70
2022/12/04 05:13:05;;;;;;;;;;;1.90;99.90;;;;;;5099437;28;19947;-69
2022/12/04 05:15:31;;;;;;;;;;;1.90;99.90;;;;;;5090748;28;20377;-69
2022/12/04 05:17:58;;;;;;;;;;;1.90;99.90;;;;;;5091487;28;19958;-69
2022/12/04 05:20:26;;;;;;;;;;;1.90;99.90;;;;;;5098106;28;19947;-69
2022/12/04 05:22:53;;;;;;;;;;;1.90;99.90;;;;;;5086628;28;19927;-70
2022/12/04 05:25:20;;;;;;;;;;;1.90;99.90;;;;;;5103277;28;20103;-69
2022/12/04 05:27:46;;;;;;;;;;;1.90;99.90;;;;;;5102337;28;20282;-68
2022/12/04 05:30:13;;;;;;;;;;;1.90;99.90;;;;;;5089779;28;19983;-69
2022/12/04 05:32:40;;;;;;;;;;;1.90;99.90;;;;;;5099750;28;19987;-69
2022/12/04 05:35:06;;;;;;;;;;;1.90;99.90;;;;;;5082768;28;19959;-69
2022/12/04 05:37:37;;;;;;;;;;;1.90;99.90;;;;;;5087523;28;20028;-69
2022/12/04 05:40:04;;;;;;;;;;;1.90;99.90;;;;;;5103017;28;20179;-69
2022/12/04 05:42:31;;;;;;;;;;;1.90;99.90;;;;;;5087105;28;19992;-69
2022/12/04 05:44:57;;;;;;;;;;;2.00;99.90;;;;;;5102461;28;19983;-69
2022/12/04 05:47:24;;;;;;;;;;;1.90;99.90;;;;;;5095625;28;19952;-70
2022/12/04 05:49:51;;;;;;;;;;;2.00;99.90;;;;;;5092921;28;20173;-69
2022/12/04 05:52:17;;;;;;;;;;;2.00;99.90;;;;;;5088763;28;19954;-70
2022/12/04 05:54:51;;;;;;;;;;;2.00;99.90;;;;;;5097924;28;19959;-70
2022/12/04 05:57:18;;;;;;;;;;;2.00;99.90;;;;;;5081660;28;19992;-69
2022/12/04 05:59:44;;;;;;;;;;;2.00;99.90;;;;;;5092151;28;19947;-69
2022/12/04 06:02:11;;;;;;;;;;;2.00;99.90;;;;;;5105121;28;19983;-68
2022/12/04 06:04:38;;;;;;;;;;;2.00;99.90;;;;;;5103403;28;20000;-69
2022/12/04 06:07:04;;;;;;;;;;;2.00;99.90;;;;;;5099938;28;19926;-69
2022/12/04 06:09:31;;;;;;;;;;;2.00;99.90;;;;;;5106220;28;19952;-69
2022/12/04 06:11:59;;;;;;;;;;;2.00;99.90;;;;;;5106157;28;19955;-69
2022/12/04 06:14:26;;;;;;;;;;;2.00;99.90;;;;;;5106074;28;19948;-70
2022/12/04 06:16:52;;;;;;;;;;;2.00;99.90;;;;;;5105358;28;20243;-70
2022/12/04 06:19:19;;;;;;;;;;;2.00;99.90;;;;;;5106452;28;19959;-69
2022/12/04 06:21:47;;;;;;;;;;;2.00;99.90;;;;;;5105964;28;19946;-69
2022/12/04 06:24:15;;;;;;;;;;;2.10;99.90;;;;;;5100087;28;19955;-69
2022/12/04 06:26:41;;;;;;;;;;;2.10;99.90;;;;;;5105119;28;20231;-69
2022/12/04 06:29:10;;;;;;;;;;;2.10;99.90;;;;;;5106162;28;20171;-69
2022/12/04 06:31:37;;;;;;;;;;;2.10;99.90;;;;;;5085705;28;20262;-69
2022/12/04 06:34:04;;;;;;;;;;;2.10;99.90;;;;;;5085918;28;19947;-69
2022/12/04 06:36:31;;;;;;;;;;;2.10;99.90;;;;;;5091560;28;19952;-69
2022/12/04 06:38:58;;;;;;;;;;;2.00;99.90;;;;;;5095839;28;20000;-68
2022/12/04 06:41:26;;;;;;;;;;;2.10;99.90;;;;;;5097152;28;19983;-69
2022/12/04 06:43:52;;;;;;;;;;;2.00;99.90;;;;;;5105877;28;19951;-70
2022/12/04 06:46:21;;;;;;;;;;;2.10;99.90;;;;;;5104656;28;20186;-69
2022/12/04 06:48:48;;;;;;;;;;;2.10;99.90;;;;;;5105501;28;19920;-69
2022/12/04 06:51:15;;;;;;;;;;;2.10;99.90;;;;;;5105784;28;19966;-69
2022/12/04 06:53:43;;;;;;;;;;;2.10;99.90;;;;;;5105751;28;19983;-69
2022/12/04 06:56:11;;;;;;;;;;;2.10;99.90;;;;;;5104714;28;19975;-70
2022/12/04 06:58:37;;;;;;;;;;;2.10;99.90;;;;;;5105521;28;19994;-69
2022/12/04 07:01:06;;;;;;;;;;;2.10;99.90;;;;;;5103647;28;19951;-69
2022/12/04 07:03:35;;;;;;;;;;;2.20;99.90;;;;;;5105480;28;19920;-68
2022/12/04 07:06:09;;;;;;;;;;;2.20;99.90;;;;;;5105434;28;19955;-69
2022/12/04 07:08:36;;;;;;;;;;;2.20;99.90;;;;;;5112462;28;19920;-69
2022/12/04 07:11:03;;;;;;;;;;;2.20;99.90;;;;;;5118914;28;19987;-69
2022/12/04 07:13:29;;;;;;;;;;;2.20;99.90;;;;;;5104242;28;20022;-69
2022/12/04 07:15:59;;;;;;;;;;;2.20;99.90;;;;;;5103823;28;19963;-68
2022/12/04 07:18:25;;;;;;;;;;;2.20;99.90;;;;;;5104968;28;19952;-69
2022/12/04 07:20:53;;;;;;;;;;;2.10;99.90;;;;;;5105146;28;19952;-69
2022/12/04 07:23:20;;;;;;;;;;;2.10;99.90;;;;;;5105015;28;20161;-69
2022/12/04 07:25:47;;;;;;;;;;;2.10;99.90;;;;;;5104757;28;19983;-69
2022/12/04 07:28:13;;;;;;;;;;;2.20;99.90;;;;;;5104766;28;19991;-69
2022/12/04 07:30:40;;;;;;;;;;;2.20;99.90;;;;;;5104819;28;19926;-68
2022/12/04 07:33:06;;;;;;;;;;;2.20;99.90;;;;;;5104834;28;19974;-71
2022/12/04 07:35:33;;;;;;;;;;;2.20;99.90;;;;;;5104817;28;20172;-71
2022/12/04 07:38:01;;;;;;;;;;;2.30;99.90;;;;;;5104434;28;19963;-71
2022/12/04 07:40:28;;;;;;;;;;;2.20;99.90;;;;;;5095885;28;19951;-71
2022/12/04 07:42:54;;;;;;;;;;;2.30;99.90;;;;;;5101520;28;19991;-72
2022/12/04 07:45:21;;;;;;;;;;;2.20;99.90;;;;;;5084486;28;19960;-69
2022/12/04 07:47:47;;;;;;;;;;;2.20;99.90;;;;;;5083587;28;19963;-70
2022/12/04 07:50:14;;;;;;;;;;;2.20;99.90;;;;;;5090529;28;19952;-69
2022/12/04 07:52:41;;;;;;;;;;;2.30;99.90;;;;;;5104763;28;19956;-69
2022/12/04 07:55:09;;;;;;;;;;;2.30;99.90;;;;;;5104655;28;19959;-69
2022/12/04 07:57:36;;;;;;;;;;;2.30;99.90;;;;;;5104228;28;19955;-69
2022/12/04 08:00:03;;;;;;;;;;;2.30;99.90;;;;;;5104589;28;19959;-69
2022/12/04 08:02:30;;;;;;;;;;;2.30;99.90;;;;;;5104336;28;20200;-69
2022/12/04 08:04:56;;;;;;;;;;;2.30;99.90;;;;;;5104614;28;19955;-69
2022/12/04 08:07:23;;;;;;;;;;;2.30;99.90;;;;;;5091609;28;19955;-69
2022/12/04 08:09:49;;;;;;;;;;;2.30;99.90;;;;;;5104558;28;20248;-70
2022/12/04 08:12:17;;;;;;;;;;;2.30;99.90;;;;;;5104475;28;19963;-70
2022/12/04 08:14:44;;;;;;;;;;;2.30;99.90;;;;;;5104100;28;19956;-70
2022/12/04 08:17:10;;;;;;;;;;;2.30;99.90;;;;;;5103655;28;19979;-69
2022/12/04 08:19:37;;;;;;;;;;;2.30;99.90;;;;;;5104005;28;20235;-70
2022/12/04 08:22:04;;;;;;;;;;;2.30;99.90;;;;;;5104233;28;19962;-69
2022/12/04 08:24:31;;;;;;;;;;;2.30;99.90;;;;;;5083450;28;19955;-71
2022/12/04 08:26:57;;;;;;;;;;;2.40;99.90;;;;;;5082950;28;19988;-69
2022/12/04 08:29:25;;;;;;;;;;;2.40;99.90;;;;;;5083382;28;19962;-70
2022/12/04 08:31:52;;;;;;;;;;;2.40;99.90;;;;;;5083780;28;19991;-70
2022/12/04 08:34:18;;;;;;;;;;;2.50;99.90;;;;;;5083603;28;19964;-69
2022/12/04 08:36:45;;;;;;;;;;;2.50;99.90;;;;;;5083070;28;19978;-69
2022/12/04 08:39:12;;;;;;;;;;;2.50;99.90;;;;;;5083549;28;20172;-70
2022/12/04 08:41:39;;;;;;;;;;;2.50;99.90;;;;;;5083588;28;20143;-69
2022/12/04 08:44:06;;;;;;;;;;;2.50;99.90;;;;;;5083152;28;19951;-69
2022/12/04 08:46:34;;;;;;;;;;;2.50;99.90;;;;;;5082831;28;19995;-70
2022/12/04 08:49:00;;;;;;;;;;;2.60;99.90;;;;;;5083676;28;19963;-70
2022/12/04 08:51:28;;;;;;;;;;;2.60;99.90;;;;;;5104624;28;19990;-69
2022/12/04 08:53:56;;;;;;;;;;;2.60;99.90;;;;;;5103872;28;19987;-69
2022/12/04 08:56:23;;;;;;;;;;;2.50;99.90;;;;;;5102815;28;19994;-70
2022/12/04 08:58:49;;;;;;;;;;;2.60;99.90;;;;;;5103785;28;19999;-69
2022/12/04 09:01:16;;;;;;;;;;;2.60;99.90;;;;;;5103576;28;19958;-68
2022/12/04 09:03:44;;;;;;;;;;;2.60;99.90;;;;;;5103621;28;19947;-70
2022/12/04 09:06:13;;;;;;;;;;;2.70;99.90;;;;;;5085998;28;19924;-69
2022/12/04 09:08:40;;;;;;;;;;;2.60;99.90;;;;;;5082941;28;19993;-69
2022/12/04 09:11:08;;;;;;;;;;;2.70;99.90;;;;;;5099772;28;20238;-68
2022/12/04 09:13:34;;;;;;;;;;;2.70;99.90;;;;;;5103463;28;19955;-75
2022/12/04 09:16:03;;;;;;;;;;;2.70;99.90;;;;;;5087597;28;19955;-69
2022/12/04 09:18:29;;;;;;;;;;;2.70;99.90;;;;;;5083011;28;20227;-68
2022/12/04 09:20:58;;;;;;;;;;;2.70;99.90;;;;;;5083245;28;19951;-69
2022/12/04 09:23:25;;;;;;;;;;;2.70;99.90;;;;;;5083187;28;19980;-68
2022/12/04 09:25:52;;;;;;;;;;;2.80;99.90;;;;;;5083060;28;19987;-69
2022/12/04 09:28:19;;;;;;;;;;;2.70;99.90;;;;;;5082540;28;19932;-69
2022/12/04 09:30:45;;;;;;;;;;;2.80;99.90;;;;;;5082909;28;20255;-69
2022/12/04 09:33:13;;;;;;;;;;;2.80;99.90;;;;;;5083254;28;19966;-69
2022/12/04 09:35:39;;;;;;;;;;;2.80;99.90;;;;;;5103026;28;19920;-69
2022/12/04 09:38:07;;;;;;;;;;;2.80;99.90;;;;;;5092922;28;19958;-70
2022/12/04 09:40:38;;;;;;;;;;;2.80;99.90;;;;;;5105065;28;19920;-69
2022/12/04 09:43:08;;;;;;;;;;;2.80;99.90;;;;;;5107153;28;19976;-70
2022/12/04 09:45:41;;;;;;;;;;;2.80;99.90;;;;;;5107052;28;19955;-69
2022/12/04 09:48:10;;;;;;;;;;;2.80;99.90;;;;;;5106869;28;19979;-69
2022/12/04 09:50:39;;;;;;;;;;;2.80;99.90;;;;;;5089176;28;20239;-69
2022/12/04 09:53:10;;;;;;;;;;;2.90;99.90;;;;;;5091702;28;19924;-69
2022/12/04 09:55:40;;;;;;;;;;;2.90;99.90;;;;;;5098273;28;19920;-68
2022/12/04 09:58:10;;;;;;;;;;;2.90;99.90;;;;;;5095089;28;19962;-70
2022/12/04 10:00:41;;;;;;;;;;;2.90;99.90;;;;;;5098138;28;20220;-69
2022/12/04 10:03:14;;;;;;;;;;;2.90;99.90;;;;;;5106665;28;19920;-69
2022/12/04 10:05:45;;;;;;;;;;;2.90;99.90;;;;;;5106448;28;19963;-70
2022/12/04 10:08:16;;;;;;;;;;;2.90;99.90;;;;;;5106012;28;19991;-70
2022/12/04 10:10:47;;;;;;;;;;;3.00;99.90;;;;;;5105765;28;19963;-70
2022/12/04 10:13:35;;;;;;;;;;;3.00;99.90;;;;;;5106164;28;20258;-69
2022/12/04 10:16:07;;;;;;;;;;;3.00;99.90;;;;;;5098822;28;19948;-69
2022/12/04 10:18:38;;;;;;;;;;;3.00;99.90;;;;;;5106645;28;19952;-70
2022/12/04 10:21:11;;;;;;;;;;;3.00;99.90;;;;;;5106543;28;19955;-70
2022/12/04 10:23:44;;;;;;;;;;;3.00;99.90;;;;;;5106508;28;19920;-70
2022/12/04 10:26:14;;;;;;;;;;;3.10;99.90;;;;;;5105777;28;19920;-69
2022/12/04 10:28:43;;;;;;;;;;;3.10;99.90;;;;;;5106298;28;20246;-70
2022/12/04 10:31:11;;;;;;;;;;;3.10;99.90;;;;;;5105923;28;20014;-69
2022/12/04 10:33:39;;;;;;;;;;;3.20;99.90;;;;;;5105648;28;20261;-69
2022/12/04 10:36:06;;;;;;;;;;;3.10;99.90;;;;;;5101397;28;19987;-70
2022/12/04 10:38:37;;;;;;;;;;;3.10;99.90;;;;;;5106016;28;19920;-69
2022/12/04 10:41:06;;;;;;;;;;;3.10;99.90;;;;;;5095306;28;19980;-70
2022/12/04 10:43:38;;;;;;;;;;;3.10;99.90;;;;;;5103157;28;19955;-69
2022/12/04 10:46:05;;;;;;;;;;;3.20;99.90;;;;;;5105416;28;19986;-69
2022/12/04 10:48:33;;;;;;;;;;;3.20;99.90;;;;;;5099259;28;19988;-70
2022/12/04 10:51:00;;;;;;;;;;;3.10;99.90;;;;;;5085286;28;20228;-70
2022/12/04 10:53:29;;;;;;;;;;;3.10;99.90;;;;;;5085181;28;19952;-70
2022/12/04 10:55:56;;;;;;;;;;;3.20;99.90;;;;;;5085147;28;19928;-69
2022/12/04 10:58:24;;;;;;;;;;;3.20;99.90;;;;;;5084870;28;20239;-69
2022/12/04 11:01:00;;;;;;;;;;;3.20;99.90;;;;;;5085591;28;19934;-72
2022/12/04 11:03:29;;;;;;;;;;;3.20;99.90;;;;;;5085114;28;19952;-69
2022/12/04 11:05:56;;;;;;;;;;;3.20;99.90;;;;;;5084677;28;20066;-69
2022/12/04 11:08:24;;;;;;;;;;;3.20;99.90;;;;;;5098855;28;19920;-69
2022/12/04 11:10:57;;;;;;;;;;;3.30;99.90;;;;;;5116829;28;19986;-69
2022/12/04 11:13:23;;;;;;;;;;;3.30;99.90;;;;;;5125388;28;19951;-69
2022/12/04 11:15:50;;;;;;;;;;;3.20;99.90;;;;;;5125374;28;19951;-70
2022/12/04 11:18:19;;;;;;;;;;;3.30;99.90;;;;;;5125203;28;19919;-71
2022/12/04 11:20:51;;;;;;;;;;;3.40;99.90;;;;;;5125684;28;20072;-72
2022/12/04 11:23:18;;;;;;;;;;;3.40;99.90;;;;;;5125711;28;19951;-70
2022/12/04 11:25:49;;;;;;;;;;;3.40;99.90;;;;;;5113460;28;19962;-69
2022/12/04 11:28:17;;;;;;;;;;;3.40;99.90;;;;;;5101562;28;19927;-69
2022/12/04 11:30:48;;;;;;;;;;;3.50;99.90;;;;;;5104252;28;19920;-69
2022/12/04 11:33:17;;;;;;;;;;;3.50;99.90;;;;;;5104517;28;20242;-68
2022/12/04 11:35:50;;;;;;;;;;;3.50;99.90;;;;;;5103983;28;20188;-68
2022/12/04 11:38:17;;;;;;;;;;;3.50;99.90;;;;;;5103922;28;19961;-68
2022/12/04 11:40:46;;;;;;;;;;;3.50;99.90;;;;;;5104914;28;19987;-69
2022/12/04 11:43:13;;;;;;;;;;;3.50;99.90;;;;;;5104738;28;19962;-68
2022/12/04 11:45:40;;;;;;;;;;;3.50;99.90;;;;;;5104405;28;19920;-68
2022/12/04 11:48:13;;;;;;;;;;;3.60;99.90;;;;;;5104412;28;19983;-68
2022/12/04 11:50:46;;;;;;;;;;;3.50;99.90;;;;;;5104378;28;20153;-68
2022/12/04 11:53:17;;;;;;;;;;;3.60;99.90;;;;;;5104288;28;19954;-68
2022/12/04 11:55:48;;;;;;;;;;;3.60;99.90;;;;;;5104271;28;19988;-68
2022/12/04 11:58:22;;;;;;;;;;;3.60;99.90;;;;;;5103885;28;19983;-68
2022/12/04 12:00:51;;;;;;;;;;;3.60;99.90;;;;;;5109416;28;19983;-68
2022/12/04 12:03:22;;;;;;;;;;;3.60;99.90;;;;;;5104010;28;19950;-68
2022/12/04 12:06:10;;;;;;;;;;;3.60;99.90;;;;;;5103954;28;20173;-67
2022/12/04 12:08:50;;;;;;;;;;;3.70;99.90;;;;;;5106603;28;19959;-68
2022/12/04 12:11:21;;;;;;;;;;;3.70;99.90;;;;;;5124467;28;19951;-68
2022/12/04 12:13:53;;;;;;;;;;;3.70;99.90;;;;;;5124083;28;19963;-68
2022/12/04 12:16:22;;;;;;;;;;;3.70;99.90;;;;;;5121390;28;19982;-68
2022/12/04 12:19:03;;;;;;;;;;;3.70;99.90;;;;;;5103894;28;19920;-68
2022/12/04 12:21:35;;;;;;;;;;;3.70;99.90;;;;;;5104265;28;19926;-68
2022/12/04 12:24:17;;;;;;;;;;;3.80;99.90;;;;;;5104100;28;19956;-67
2022/12/04 12:26:46;;;;;;;;;;;3.80;99.90;;;;;;5101155;28;19955;-68
2022/12/04 12:29:17;;;;;;;;;;;3.80;99.90;;;;;;5103942;28;19967;-68
2022/12/04 12:31:52;;;;;;;;;;;3.80;99.90;;;;;;5103978;28;19967;-68
2022/12/04 12:34:22;;;;;;;;;;;3.80;99.90;;;;;;5103894;28;19920;-68
2022/12/04 12:36:50;;;;;;;;;;;3.80;99.90;;;;;;5102984;28;19992;-68
2022/12/04 12:39:21;;;;;;;;;;;3.90;99.90;;;;;;5103807;28;19920;-68
2022/12/04 12:41:50;;;;;;;;;;;3.90;99.90;;;;;;5103912;28;19920;-68
2022/12/04 12:44:21;;;;;;;;;;;3.90;99.90;;;;;;5103094;28;20128;-68
2022/12/04 12:46:50;;;;;;;;;;;3.90;99.90;;;;;;5101993;28;19982;-68
2022/12/04 12:49:20;;;;;;;;;;;3.90;99.90;;;;;;5103839;28;19927;-68
2022/12/04 12:51:50;;;;;;;;;;;3.90;99.90;;;;;;5103303;28;20333;-68
2022/12/04 12:54:23;;;;;;;;;;;3.90;99.90;;;;;;5103650;28;20098;-68
2022/12/04 12:56:53;;;;;;;;;;;3.90;99.90;;;;;;5102960;28;19956;-68
2022/12/04 12:59:22;;;;;;;;;;;3.90;99.90;;;;;;5103332;28;19955;-68
2022/12/04 13:01:51;;;;;;;;;;;4.00;99.90;;;;;;5103690;28;19988;-68
2022/12/04 13:04:22;;;;;;;;;;;4.00;99.90;;;;;;5103224;28;19983;-68
2022/12/04 13:06:51;;;;;;;;;;;4.00;99.90;;;;;;5102778;28;19956;-68
2022/12/04 13:09:20;;;;;;;;;;;4.00;99.90;;;;;;5103109;28;19932;-68
2022/12/04 13:11:50;;;;;;;;;;;4.00;99.90;;;;;;5105334;28;19962;-68
2022/12/04 13:14:17;;;;;;;;;;;4.00;99.90;;;;;;5099154;28;19959;-68
2022/12/04 13:16:45;;;;;;;;;;;4.10;99.90;;;;;;5085757;28;19920;-73
2022/12/04 13:19:16;;;;;;;;;;;4.10;99.90;;;;;;5103400;28;19942;-68
2022/12/04 13:21:45;;;;;;;;;;;4.10;99.90;;;;;;5107617;28;19983;-68
2022/12/04 13:24:28;;;;;;;;;;;4.10;99.90;;;;;;5106910;28;19987;-68
2022/12/04 13:27:00;;;;;;;;;;;4.00;99.90;;;;;;5106424;28;20008;-68
2022/12/04 13:29:33;;;;;;;;;;;4.10;99.90;;;;;;5106847;28;19991;-68
2022/12/04 13:32:03;;;;;;;;;;;4.10;99.90;;;;;;5106897;28;19948;-67
2022/12/04 13:34:34;;;;;;;;;;;4.10;99.90;;;;;;5107011;28;20187;-68
2022/12/04 13:37:12;;;;;;;;;;;4.10;99.90;;;;;;5103108;28;20273;-68
2022/12/04 13:39:57;;;;;;;;;;;4.10;99.90;;;;;;5101650;28;20005;-70
2022/12/04 13:42:26;;;;;;;;;;;4.10;99.90;;;;;;5099205;28;20259;-70
2022/12/04 13:44:53;;;;;;;;;;;4.10;99.90;;;;;;5088748;28;19995;-69
2022/12/04 13:47:27;;;;;;;;;;;4.00;99.90;;;;;;5098125;28;19991;-69
2022/12/04 13:50:05;;;;;;;;;;;4.10;99.90;;;;;;5093442;28;19920;-69
2022/12/04 13:52:38;;;;;;;;;;;4.10;99.90;;;;;;5106279;28;19986;-69
2022/12/04 13:55:22;;;;;;;;;;;4.10;99.90;;;;;;5110264;28;19951;-69
2022/12/04 13:57:57;;;;;;;;;;;4.20;99.90;;;;;;5123630;28;20169;-70
2022/12/04 14:00:25;;;;;;;;;;;4.10;99.90;;;;;;5126836;28;20223;-69
2022/12/04 14:02:53;;;;;;;;;;;4.20;99.90;;;;;;5126630;28;19919;-70
2022/12/04 14:05:26;;;;;;;;;;;4.20;99.90;;;;;;5108695;28;19959;-70
2022/12/04 14:07:58;;;;;;;;;;;4.20;99.90;;;;;;5102628;28;19983;-69
2022/12/04 14:10:26;;;;;;;;;;;4.20;99.90;;;;;;5098362;28;19943;-68
2022/12/04 14:12:57;;;;;;;;;;;4.10;99.90;;;;;;5106393;28;19928;-69
2022/12/04 14:15:25;;;;;;;;;;;4.20;99.90;;;;;;5105831;28;20311;-69
2022/12/04 14:17:57;;;;;;;;;;;4.20;99.90;;;;;;5085900;28;19921;-68
2022/12/04 14:20:25;;;;;;;;;;;4.20;99.90;;;;;;5086724;28;20141;-68
2022/12/04 14:22:52;;;;;;;;;;;4.20;99.90;;;;;;5123672;28;19951;-67
2022/12/04 14:25:22;;;;;;;;;;;4.20;99.90;;;;;;5126537;28;20018;-68
2022/12/04 14:27:50;;;;;;;;;;;4.20;99.90;;;;;;5125935;28;19951;-68
2022/12/04 14:30:20;;;;;;;;;;;4.20;99.90;;;;;;5126558;28;19926;-68
2022/12/04 14:32:50;;;;;;;;;;;4.20;99.90;;;;;;5125470;28;19958;-68
2022/12/04 14:35:17;;;;;;;;;;;4.20;99.90;;;;;;5107761;28;19987;-68
2022/12/04 14:37:48;;;;;;;;;;;4.30;99.90;;;;;;5112871;28;19957;-67
2022/12/04 14:40:19;;;;;;;;;;;4.30;99.90;;;;;;5125905;28;19991;-67
2022/12/04 14:42:47;;;;;;;;;;;4.20;99.90;;;;;;5085104;28;19931;-68
2022/12/04 14:45:26;;;;;;;;;;;4.30;99.90;;;;;;5086981;28;19928;-68
2022/12/04 14:48:01;;;;;;;;;;;4.20;99.90;;;;;;5098024;28;19959;-66
2022/12/04 14:50:31;;;;;;;;;;;4.20;99.90;;;;;;5104244;28;19991;-74
2022/12/04 14:53:00;;;;;;;;;;;4.20;99.90;;;;;;5103713;28;19924;-69